createdAt,value
2019-03-05T00:00:46.455Z,991.84
2019-03-05T00:01:46.433Z,991.88
2019-03-05T00:02:46.423Z,991.86
2019-03-05T00:03:46.417Z,991.85
2019-03-05T00:04:46.404Z,991.84
2019-03-05T00:05:46.412Z,991.87
2019-03-05T00:06:46.384Z,991.85
2019-03-05T00:07:46.372Z,991.84
2019-03-05T00:08:46.378Z,991.79
2019-03-05T00:09:46.357Z,991.88
2019-03-05T00:10:46.341Z,991.85
2019-03-05T00:11:46.327Z,991.92
2019-03-05T00:12:46.311Z,991.84
2019-03-05T00:13:46.311Z,991.82
2019-03-05T00:14:46.295Z,991.79
2019-03-05T00:15:46.288Z,991.73
2019-03-05T00:16:46.276Z,991.85
2019-03-05T00:17:46.259Z,991.79
2019-03-05T00:18:46.303Z,991.84
2019-03-05T00:19:46.297Z,991.77
2019-03-05T00:20:46.261Z,991.73
2019-03-05T00:21:46.219Z,991.82
2019-03-05T00:22:46.221Z,991.77
2019-03-05T00:23:46.198Z,991.79
2019-03-05T00:24:46.180Z,991.78
2019-03-05T00:25:46.174Z,991.81
2019-03-05T00:26:46.181Z,991.79
2019-03-05T00:27:46.161Z,991.75
2019-03-05T00:28:46.153Z,991.74
2019-03-05T00:29:46.123Z,991.79
2019-03-05T00:30:46.125Z,991.77
2019-03-05T00:31:46.111Z,991.75
2019-03-05T00:32:46.097Z,991.75
2019-03-05T00:33:46.090Z,991.82
2019-03-05T00:34:46.076Z,991.77
2019-03-05T00:35:46.056Z,991.77
2019-03-05T00:36:46.058Z,991.87
2019-03-05T00:37:46.034Z,991.87
2019-03-05T00:38:46.031Z,991.89
2019-03-05T00:39:46.015Z,991.86
2019-03-05T00:40:46.005Z,991.81
2019-03-05T00:41:46.001Z,991.85
2019-03-05T00:42:45.992Z,991.90
2019-03-05T00:43:45.967Z,991.89
2019-03-05T00:44:45.971Z,991.87
2019-03-05T00:45:45.951Z,991.89
2019-03-05T00:46:45.943Z,991.85
2019-03-05T00:47:45.925Z,991.90
2019-03-05T00:48:45.930Z,991.91
2019-03-05T00:49:45.915Z,991.87
2019-03-05T00:50:45.908Z,991.96
2019-03-05T00:51:45.885Z,991.94
2019-03-05T00:52:45.872Z,991.96
2019-03-05T00:53:45.862Z,991.95
2019-03-05T00:54:45.854Z,991.99
2019-03-05T19:16:46.562Z,1002.81
2019-03-05T19:17:46.507Z,1002.83
2019-03-05T19:19:16.993Z,1002.89
2019-03-05T19:20:16.955Z,1002.90
2019-03-05T19:21:16.945Z,1002.87
2019-03-05T19:22:16.942Z,1002.92
2019-03-05T19:23:16.921Z,1002.96
2019-03-05T19:24:16.925Z,1002.98
2019-03-05T19:25:17.044Z,1003.01
2019-03-05T19:26:16.908Z,1003.00
2019-03-05T19:27:25.725Z,1003.09
2019-03-05T19:28:17.873Z,1003.08
2019-03-05T19:29:16.861Z,1003.07
2019-03-05T19:30:16.852Z,1003.09
2019-03-05T19:31:16.846Z,1003.09
2019-03-05T19:32:16.825Z,1003.08
2019-03-05T19:33:16.819Z,1003.09
2019-03-05T19:34:16.814Z,1003.08
2019-03-05T19:35:16.800Z,1003.13
2019-03-05T19:36:16.797Z,1003.15
2019-03-05T19:37:16.775Z,1003.17
2019-03-05T19:38:16.757Z,1003.21
2019-03-05T19:39:16.749Z,1003.24
2019-03-05T19:40:16.735Z,1003.20
2019-03-05T19:41:16.724Z,1003.24
2019-03-05T19:42:16.743Z,1003.24
2019-03-05T19:43:16.715Z,1003.29
2019-03-05T19:46:37.091Z,1003.33
2019-03-05T19:47:37.039Z,1003.32
2019-03-05T19:48:37.031Z,1003.35
2019-03-05T19:49:37.015Z,1003.36
2019-03-05T19:50:37.002Z,1003.39
2019-03-05T19:51:37.011Z,1003.41
2019-03-05T19:52:37.019Z,1003.40
2019-03-05T19:53:36.976Z,1003.40
2019-03-05T19:54:36.986Z,1003.43
2019-03-05T19:55:36.950Z,1003.40
2019-03-05T19:56:36.950Z,1003.37
2019-03-05T19:57:36.926Z,1003.38
2019-03-05T19:58:36.965Z,1003.41
2019-03-05T19:59:36.933Z,1003.48
2019-03-05T20:00:37.733Z,1003.49
2019-03-05T20:01:37.056Z,1003.49
2019-03-05T20:02:36.879Z,1003.49
2019-03-05T20:03:36.869Z,1003.50
2019-03-05T20:04:36.862Z,1003.52
2019-03-05T20:05:36.867Z,1003.51
2019-03-05T20:06:36.839Z,1003.56
2019-03-05T20:07:36.849Z,1003.61
2019-03-05T20:08:40.136Z,1003.58
2019-03-05T20:09:36.809Z,1003.61
2019-03-05T20:10:36.790Z,1003.64
2019-03-05T20:11:36.790Z,1003.64
2019-03-05T20:12:36.765Z,1003.67
2019-03-05T20:13:36.807Z,1003.67
2019-03-05T20:14:36.753Z,1003.67
2019-03-05T20:15:36.733Z,1003.71
2019-03-05T20:16:36.726Z,1003.74
2019-03-05T20:17:36.730Z,1003.71
2019-03-05T20:18:36.706Z,1003.75
2019-03-05T20:19:36.738Z,1003.76
2019-03-05T20:20:36.685Z,1003.79
2019-03-05T20:21:36.679Z,1003.80
2019-03-05T20:22:36.658Z,1003.80
2019-03-05T20:23:36.670Z,1003.84
2019-03-05T20:24:36.638Z,1003.83
2019-03-05T20:25:36.697Z,1003.91
2019-03-05T20:26:36.615Z,1003.85
2019-03-05T20:27:36.659Z,1003.90
2019-03-05T20:28:36.605Z,1003.91
2019-03-05T20:29:36.592Z,1003.95
2019-03-05T20:30:36.574Z,1003.94
2019-03-05T20:31:36.559Z,1003.96
2019-03-05T20:32:36.548Z,1003.96
2019-03-05T20:33:36.537Z,1003.99
2019-03-05T20:34:36.530Z,1004.00
2019-03-05T20:35:36.516Z,1004.04
2019-03-05T20:36:36.503Z,1004.05
2019-03-05T20:37:36.520Z,1004.07
2019-03-05T20:38:36.521Z,1004.07
2019-03-05T20:39:36.478Z,1004.08
2019-03-05T20:40:36.468Z,1004.09
2019-03-05T20:41:36.461Z,1004.11
2019-03-05T20:42:36.440Z,1004.17
2019-03-05T20:43:36.433Z,1004.24
2019-03-05T20:44:36.434Z,1004.26
2019-03-05T20:45:36.418Z,1004.25
2019-03-05T20:46:36.408Z,1004.31
2019-03-05T20:47:36.392Z,1004.25
2019-03-05T20:48:36.405Z,1004.30
2019-03-05T20:49:36.361Z,1004.34
2019-03-05T20:50:36.381Z,1004.30
2019-03-05T20:51:36.357Z,1004.32
2019-03-05T20:52:36.344Z,1004.34
2019-03-05T20:53:36.325Z,1004.34
2019-03-05T20:54:36.311Z,1004.31
2019-03-05T20:55:36.305Z,1004.34
2019-03-05T20:56:36.324Z,1004.36
2019-03-05T20:57:36.355Z,1004.39
2019-03-05T20:58:36.282Z,1004.39
2019-03-05T20:59:36.254Z,1004.44
2019-03-05T21:00:36.286Z,1004.46
2019-03-05T21:01:36.238Z,1004.46
2019-03-05T21:02:36.234Z,1004.46
2019-03-05T21:03:36.218Z,1004.48
2019-03-05T21:04:36.229Z,1004.49
2019-03-05T21:05:36.244Z,1004.53
2019-03-05T21:06:36.357Z,1004.51
2019-03-05T21:07:36.174Z,1004.55
2019-03-05T21:08:36.200Z,1004.52
2019-03-05T21:09:36.202Z,1004.52
2019-03-05T21:10:36.142Z,1004.53
2019-03-05T21:11:36.122Z,1004.58
2019-03-05T21:12:36.113Z,1004.58
2019-03-05T21:13:36.114Z,1004.60
2019-03-05T21:14:36.091Z,1004.60
2019-03-05T21:15:36.126Z,1004.65
2019-03-05T21:16:36.075Z,1004.62
2019-03-05T21:17:36.058Z,1004.65
2019-03-05T21:18:36.054Z,1004.67
2019-03-05T21:19:36.039Z,1004.69
2019-03-05T21:20:36.029Z,1004.68
2019-03-05T21:21:36.033Z,1004.69
2019-03-05T21:22:36.012Z,1004.71
2019-03-05T21:23:36.036Z,1004.72
2019-03-05T21:24:36.024Z,1004.73
2019-03-05T21:25:35.984Z,1004.76
2019-03-05T21:26:35.964Z,1004.77
2019-03-05T21:27:36.010Z,1004.78
2019-03-05T21:28:35.942Z,1004.78
2019-03-05T21:29:35.936Z,1004.79
2019-03-05T21:30:35.961Z,1004.82
2019-03-05T21:31:35.992Z,1004.79
2019-03-05T21:32:35.901Z,1004.84
2019-03-05T21:33:35.901Z,1004.84
2019-03-05T21:34:35.880Z,1004.88
2019-03-05T21:35:35.864Z,1004.86
2019-03-05T21:36:35.875Z,1004.89
2019-03-05T21:37:35.844Z,1004.91
2019-03-05T21:38:35.841Z,1004.91
2019-03-05T21:39:35.823Z,1004.90
2019-03-05T21:40:35.817Z,1004.94
2019-03-05T21:41:35.845Z,1004.94
2019-03-05T21:42:35.805Z,1004.95
2019-03-05T21:43:35.788Z,1004.96
2019-03-05T21:44:35.813Z,1004.98
2019-03-05T21:45:35.799Z,1004.98
2019-03-05T21:46:35.787Z,1005.02
2019-03-05T21:47:35.736Z,1005.03
2019-03-05T21:48:35.734Z,1005.08
2019-03-05T21:49:35.728Z,1005.04
2019-03-05T21:50:35.711Z,1005.09
2019-03-05T21:51:35.982Z,1005.09
2019-03-05T21:52:36.580Z,1005.09
2019-03-05T21:53:35.705Z,1005.06
2019-03-05T21:54:35.671Z,1005.09
2019-03-05T21:55:35.667Z,1005.07
2019-03-05T21:56:35.661Z,1005.11
2019-03-05T21:57:35.639Z,1005.14
2019-03-05T21:58:35.626Z,1005.14
2019-03-05T21:59:35.613Z,1005.17
2019-03-05T22:00:35.606Z,1005.19
2019-03-05T22:01:35.593Z,1005.16
